This is the latest recevied weather packets stored in our database for station/object OM6ABF-12. If no packets are shown the sender has not sent any weather packets the latest 10 day(s).
| Time | Temp. | Humidity | Pressure | Rain* | Wind** | Luminosity | Snow |
|---|---|---|---|---|---|---|---|
| 1777132275 | 12.22° C | 42% | 1022.5 hPa | - | - | - | - |
| 1777131318 | 12.78° C | 41% | 1022.6 hPa | - | - | - | - |
| 1777130360 | 12.78° C | 40% | 1022.6 hPa | - | - | - | - |
| 1777129402 | 12.78° C | 39% | 1022.6 hPa | - | - | - | - |
| 1777128444 | 13.33° C | 39% | 1022.6 hPa | - | - | - | - |
| 1777127487 | 13.33° C | 37% | 1022.6 hPa | - | - | - | - |
| 1777126529 | 13.33° C | 36% | 1022.8 hPa | - | - | - | - |
| 1777125570 | 13.89° C | 32% | 1022.7 hPa | - | - | - | - |
| 1777124612 | 13.33° C | 37% | 1022.8 hPa | - | - | - | - |
| 1777123652 | 13.89° C | 35% | 1022.8 hPa | - | - | - | - |
| 1777122694 | 14.44° C | 34% | 1023 hPa | - | - | - | - |
| 1777121736 | 14.44° C | 33% | 1023 hPa | - | - | - | - |
| 1777120779 | 13.89° C | 36% | 1023.2 hPa | - | - | - | - |
| 1777119822 | 13.89° C | 38% | 1023.2 hPa | - | - | - | - |
| 1777118866 | 14.44° C | 36% | 1023.1 hPa | - | - | - | - |
| 1777117908 | 14.44° C | 36% | 1023.2 hPa | - | - | - | - |
| 1777116949 | 13.33° C | 38% | 1023.3 hPa | - | - | - | - |
| 1777115990 | 13.89° C | 36% | 1023.3 hPa | - | - | - | - |
| 1777115033 | 12.78° C | 36% | 1023.4 hPa | - | - | - | - |
| 1777114075 | 12.22° C | 38% | 1023.5 hPa | - | - | - | - |
| 1777113116 | 12.22° C | 37% | 1023.5 hPa | - | - | - | - |
| 1777112159 | 12.22° C | 38% | 1023.6 hPa | - | - | - | - |
| 1777111200 | 12.78° C | 36% | 1023.5 hPa | - | - | - | - |
| 1777110242 | 12.22° C | 37% | 1023.5 hPa | - | - | - | - |
| 1777109283 | 12.22° C | 36% | 1023.4 hPa | - | - | - | - |
* Rain since midnight (hover to see other rain measurements)
** Current wind speed in m/s (hover to see current wind gust speed)